Mansfield, Ohio
Current Conditions -  °F | °C
As of 1:52 AM on Friday 31 Oct 2014 (Local Time) from KMFD Reporting Station
Overcast Overcast  
Wind Chill:   Ceiling: 4500
Heat Index:   Visibility: 10mi
Dew Point:   Wind: 3mph
Humidity: 76%   Direction: 210°SSW
Pressure: 30.01"   Gusts: NA
Location:  40.76°N, 82.51°W
Report Text: KMFD 310552Z AUTO 21003KT 10SM OVC045 06/02 A3001 RMK AO2 SLP167 T00610022 10072 20061 56010
Loading
Personal Weather Stations






























Interactive Weather Map
Tropical Storm Tracking
New forecast layout! Learn more

10-Day Weather Forecast

Advertisements
Track Severe Weather on mobile